sensor_id;sensor_type;location;lat;lon;timestamp;P1;durP1;ratioP1;P2;durP2;ratioP2
72369;SDS011;60343;-32.030;115.880;2023-04-24T00:02:37;6.78;;;0.55;;
72369;SDS011;60343;-32.030;115.880;2023-04-24T00:05:13;9.52;;;0.70;;
72369;SDS011;60343;-32.030;115.880;2023-04-24T00:07:48;7.78;;;0.68;;
72369;SDS011;60343;-32.030;115.880;2023-04-24T00:10:23;5.05;;;0.57;;
72369;SDS011;60343;-32.030;115.880;2023-04-24T00:12:58;6.40;;;0.90;;
72369;SDS011;60343;-32.030;115.880;2023-04-24T00:15:32;4.55;;;0.47;;
72369;SDS011;60343;-32.030;115.880;2023-04-24T00:18:13;5.30;;;0.50;;
72369;SDS011;60343;-32.030;115.880;2023-04-24T00:20:47;8.57;;;0.80;;
72369;SDS011;60343;-32.030;115.880;2023-04-24T00:23:22;6.68;;;0.60;;
72369;SDS011;60343;-32.030;115.880;2023-04-24T00:25:56;4.35;;;0.40;;
72369;SDS011;60343;-32.030;115.880;2023-04-24T00:28:31;6.72;;;0.80;;
72369;SDS011;60343;-32.030;115.880;2023-04-24T00:31:05;7.63;;;0.95;;
72369;SDS011;60343;-32.030;115.880;2023-04-24T00:33:45;5.07;;;0.63;;
72369;SDS011;60343;-32.030;115.880;2023-04-24T00:36:20;8.85;;;0.73;;
72369;SDS011;60343;-32.030;115.880;2023-04-24T00:38:55;7.28;;;0.60;;
72369;SDS011;60343;-32.030;115.880;2023-04-24T00:41:30;7.13;;;1.13;;
72369;SDS011;60343;-32.030;115.880;2023-04-24T00:44:05;4.95;;;0.65;;
72369;SDS011;60343;-32.030;115.880;2023-04-24T00:46:40;10.30;;;0.55;;
72369;SDS011;60343;-32.030;115.880;2023-04-24T00:49:23;7.97;;;0.70;;
72369;SDS011;60343;-32.030;115.880;2023-04-24T00:51:58;6.10;;;0.60;;
72369;SDS011;60343;-32.030;115.880;2023-04-24T00:54:33;4.85;;;0.47;;
72369;SDS011;60343;-32.030;115.880;2023-04-24T00:57:08;7.78;;;0.70;;
72369;SDS011;60343;-32.030;115.880;2023-04-24T00:59:43;7.13;;;0.60;;
72369;SDS011;60343;-32.030;115.880;2023-04-24T01:02:18;7.07;;;0.43;;
72369;SDS011;60343;-32.030;115.880;2023-04-24T01:05:01;5.07;;;0.50;;
72369;SDS011;60343;-32.030;115.880;2023-04-24T01:07:36;4.63;;;0.65;;
72369;SDS011;60343;-32.030;115.880;2023-04-24T01:10:11;6.28;;;0.90;;
72369;SDS011;60343;-32.030;115.880;2023-04-24T01:12:47;2.35;;;0.50;;
72369;SDS011;60343;-32.030;115.880;2023-04-24T01:15:21;6.00;;;0.77;;
72369;SDS011;60343;-32.030;115.880;2023-04-24T01:17:56;5.35;;;0.70;;
72369;SDS011;60343;-32.030;115.880;2023-04-24T01:20:36;3.78;;;0.43;;
72369;SDS011;60343;-32.030;115.880;2023-04-24T01:23:18;4.35;;;0.45;;
72369;SDS011;60343;-32.030;115.880;2023-04-24T01:25:53;5.32;;;0.50;;
72369;SDS011;60343;-32.030;115.880;2023-04-24T01:28:27;3.58;;;0.55;;
72369;SDS011;60343;-32.030;115.880;2023-04-24T01:31:02;4.05;;;0.45;;
72369;SDS011;60343;-32.030;115.880;2023-04-24T01:33:37;4.22;;;0.60;;
72369;SDS011;60343;-32.030;115.880;2023-04-24T01:36:12;6.07;;;0.63;;
72369;SDS011;60343;-32.030;115.880;2023-04-24T01:38:52;5.60;;;0.80;;
72369;SDS011;60343;-32.030;115.880;2023-04-24T01:41:27;4.78;;;0.52;;
72369;SDS011;60343;-32.030;115.880;2023-04-24T01:44:02;6.75;;;0.63;;
72369;SDS011;60343;-32.030;115.880;2023-04-24T01:46:37;4.90;;;0.45;;
72369;SDS011;60343;-32.030;115.880;2023-04-24T01:49:12;4.53;;;0.52;;
72369;SDS011;60343;-32.030;115.880;2023-04-24T01:51:46;5.20;;;0.35;;
72369;SDS011;60343;-32.030;115.880;2023-04-24T01:54:26;4.28;;;0.50;;
72369;SDS011;60343;-32.030;115.880;2023-04-24T01:57:01;9.30;;;0.65;;
72369;SDS011;60343;-32.030;115.880;2023-04-24T01:59:35;5.10;;;0.57;;
72369;SDS011;60343;-32.030;115.880;2023-04-24T02:02:10;4.82;;;0.52;;
72369;SDS011;60343;-32.030;115.880;2023-04-24T02:04:45;8.65;;;0.77;;
72369;SDS011;60343;-32.030;115.880;2023-04-24T02:07:19;3.72;;;0.35;;
72369;SDS011;60343;-32.030;115.880;2023-04-24T02:10:00;8.07;;;1.13;;
72369;SDS011;60343;-32.030;115.880;2023-04-24T02:12:34;6.30;;;0.70;;
72369;SDS011;60343;-32.030;115.880;2023-04-24T02:15:09;3.72;;;0.57;;
72369;SDS011;60343;-32.030;115.880;2023-04-24T02:17:44;7.00;;;0.60;;
72369;SDS011;60343;-32.030;115.880;2023-04-24T02:20:19;9.05;;;0.90;;
72369;SDS011;60343;-32.030;115.880;2023-04-24T02:22:53;7.53;;;1.27;;
72369;SDS011;60343;-32.030;115.880;2023-04-24T02:25:33;8.02;;;0.70;;
72369;SDS011;60343;-32.030;115.880;2023-04-24T02:28:08;3.97;;;0.40;;
72369;SDS011;60343;-32.030;115.880;2023-04-24T02:30:42;8.02;;;0.63;;
72369;SDS011;60343;-32.030;115.880;2023-04-24T02:33:17;6.40;;;0.55;;
72369;SDS011;60343;-32.030;115.880;2023-04-24T02:35:51;4.47;;;0.50;;
72369;SDS011;60343;-32.030;115.880;2023-04-24T02:38:26;6.18;;;0.80;;
72369;SDS011;60343;-32.030;115.880;2023-04-24T02:41:06;5.00;;;0.50;;
72369;SDS011;60343;-32.030;115.880;2023-04-24T02:43:41;3.15;;;0.47;;
72369;SDS011;60343;-32.030;115.880;2023-04-24T02:46:15;4.57;;;0.40;;
72369;SDS011;60343;-32.030;115.880;2023-04-24T02:48:49;5.30;;;0.40;;
72369;SDS011;60343;-32.030;115.880;2023-04-24T02:51:24;3.33;;;0.30;;
72369;SDS011;60343;-32.030;115.880;2023-04-24T02:53:59;2.65;;;0.38;;
72369;SDS011;60343;-32.030;115.880;2023-04-24T02:56:39;2.33;;;0.22;;
72369;SDS011;60343;-32.030;115.880;2023-04-24T02:59:13;2.58;;;0.38;;
72369;SDS011;60343;-32.030;115.880;2023-04-24T03:01:48;3.15;;;0.30;;
72369;SDS011;60343;-32.030;115.880;2023-04-24T03:04:23;2.67;;;0.13;;
72369;SDS011;60343;-32.030;115.880;2023-04-24T03:06:57;3.25;;;0.30;;
72369;SDS011;60343;-32.030;115.880;2023-04-24T03:09:32;4.03;;;0.52;;
72369;SDS011;60343;-32.030;115.880;2023-04-24T03:12:12;2.60;;;0.28;;
72369;SDS011;60343;-32.030;115.880;2023-04-24T03:14:49;2.95;;;0.13;;
72369;SDS011;60343;-32.030;115.880;2023-04-24T03:17:24;2.75;;;0.30;;
72369;SDS011;60343;-32.030;115.880;2023-04-24T03:19:58;2.08;;;0.20;;
72369;SDS011;60343;-32.030;115.880;2023-04-24T03:22:34;6.20;;;0.35;;
72369;SDS011;60343;-32.030;115.880;2023-04-24T03:25:08;1.13;;;0.20;;
72369;SDS011;60343;-32.030;115.880;2023-04-24T03:27:49;5.05;;;0.30;;
72369;SDS011;60343;-32.030;115.880;2023-04-24T03:30:23;3.45;;;0.20;;
72369;SDS011;60343;-32.030;115.880;2023-04-24T03:32:58;1.13;;;0.20;;
72369;SDS011;60343;-32.030;115.880;2023-04-24T03:35:32;7.80;;;0.30;;
72369;SDS011;60343;-32.030;115.880;2023-04-24T03:38:07;3.17;;;0.30;;
72369;SDS011;60343;-32.030;115.880;2023-04-24T03:40:42;2.63;;;0.20;;
72369;SDS011;60343;-32.030;115.880;2023-04-24T03:43:22;3.50;;;0.20;;
72369;SDS011;60343;-32.030;115.880;2023-04-24T03:45:56;1.83;;;0.20;;
72369;SDS011;60343;-32.030;115.880;2023-04-24T03:48:30;4.90;;;0.38;;
72369;SDS011;60343;-32.030;115.880;2023-04-24T03:51:05;1.77;;;0.30;;
72369;SDS011;60343;-32.030;115.880;2023-04-24T03:53:39;7.78;;;0.65;;
72369;SDS011;60343;-32.030;115.880;2023-04-24T03:56:14;6.30;;;0.57;;
72369;SDS011;60343;-32.030;115.880;2023-04-24T03:58:54;5.00;;;0.52;;
72369;SDS011;60343;-32.030;115.880;2023-04-24T04:01:29;7.25;;;0.32;;
72369;SDS011;60343;-32.030;115.880;2023-04-24T04:04:03;4.38;;;0.40;;
72369;SDS011;60343;-32.030;115.880;2023-04-24T04:06:38;3.47;;;0.30;;
72369;SDS011;60343;-32.030;115.880;2023-04-24T04:09:13;2.50;;;0.20;;
72369;SDS011;60343;-32.030;115.880;2023-04-24T04:11:47;2.75;;;0.30;;
72369;SDS011;60343;-32.030;115.880;2023-04-24T04:14:27;1.95;;;0.20;;
72369;SDS011;60343;-32.030;115.880;2023-04-24T04:17:02;2.17;;;0.20;;
72369;SDS011;60343;-32.030;115.880;2023-04-24T04:19:36;3.70;;;0.30;;
72369;SDS011;60343;-32.030;115.880;2023-04-24T04:22:11;2.35;;;0.15;;
72369;SDS011;60343;-32.030;115.880;2023-04-24T04:24:45;4.95;;;0.40;;
72369;SDS011;60343;-32.030;115.880;2023-04-24T04:27:19;2.03;;;0.10;;
72369;SDS011;60343;-32.030;115.880;2023-04-24T04:30:00;1.52;;;0.20;;
72369;SDS011;60343;-32.030;115.880;2023-04-24T04:32:35;2.60;;;0.28;;
72369;SDS011;60343;-32.030;115.880;2023-04-24T04:35:10;4.28;;;0.40;;
72369;SDS011;60343;-32.030;115.880;2023-04-24T04:37:44;1.73;;;0.30;;
72369;SDS011;60343;-32.030;115.880;2023-04-24T04:40:19;3.03;;;0.40;;
72369;SDS011;60343;-32.030;115.880;2023-04-24T04:42:54;4.30;;;0.20;;
72369;SDS011;60343;-32.030;115.880;2023-04-24T04:45:37;2.80;;;0.22;;
72369;SDS011;60343;-32.030;115.880;2023-04-24T04:48:14;4.13;;;0.30;;
72369;SDS011;60343;-32.030;115.880;2023-04-24T04:50:49;2.47;;;0.15;;
72369;SDS011;60343;-32.030;115.880;2023-04-24T04:53:23;4.88;;;0.30;;
72369;SDS011;60343;-32.030;115.880;2023-04-24T04:55:57;3.60;;;0.20;;
72369;SDS011;60343;-32.030;115.880;2023-04-24T04:58:32;2.97;;;0.28;;
72369;SDS011;60343;-32.030;115.880;2023-04-24T05:01:12;4.20;;;0.40;;
72369;SDS011;60343;-32.030;115.880;2023-04-24T05:03:47;1.63;;;0.17;;
72369;SDS011;60343;-32.030;115.880;2023-04-24T05:06:21;3.35;;;0.25;;
72369;SDS011;60343;-32.030;115.880;2023-04-24T05:08:57;2.03;;;0.28;;
72369;SDS011;60343;-32.030;115.880;2023-04-24T05:11:31;2.58;;;0.30;;
72369;SDS011;60343;-32.030;115.880;2023-04-24T05:14:06;3.30;;;0.20;;
72369;SDS011;60343;-32.030;115.880;2023-04-24T05:16:49;4.25;;;0.20;;
72369;SDS011;60343;-32.030;115.880;2023-04-24T05:19:24;3.22;;;0.30;;
72369;SDS011;60343;-32.030;115.880;2023-04-24T05:21:59;1.70;;;0.20;;
72369;SDS011;60343;-32.030;115.880;2023-04-24T05:24:33;0.75;;;0.10;;
72369;SDS011;60343;-32.030;115.880;2023-04-24T05:27:08;0.40;;;0.17;;
72369;SDS011;60343;-32.030;115.880;2023-04-24T05:29:42;1.90;;;0.20;;
72369;SDS011;60343;-32.030;115.880;2023-04-24T05:32:22;2.03;;;0.20;;
72369;SDS011;60343;-32.030;115.880;2023-04-24T05:34:57;3.47;;;0.20;;
72369;SDS011;60343;-32.030;115.880;2023-04-24T05:37:31;2.67;;;0.20;;
72369;SDS011;60343;-32.030;115.880;2023-04-24T05:40:06;2.83;;;0.20;;
72369;SDS011;60343;-32.030;115.880;2023-04-24T05:42:41;5.20;;;0.40;;
72369;SDS011;60343;-32.030;115.880;2023-04-24T05:45:16;2.17;;;0.20;;
72369;SDS011;60343;-32.030;115.880;2023-04-24T05:47:56;4.25;;;0.30;;
72369;SDS011;60343;-32.030;115.880;2023-04-24T05:50:31;1.15;;;0.10;;
72369;SDS011;60343;-32.030;115.880;2023-04-24T05:53:06;0.47;;;0.10;;
72369;SDS011;60343;-32.030;115.880;2023-04-24T05:55:40;3.58;;;0.30;;
72369;SDS011;60343;-32.030;115.880;2023-04-24T05:58:15;1.77;;;0.17;;
72369;SDS011;60343;-32.030;115.880;2023-04-24T06:00:49;0.75;;;0.15;;
72369;SDS011;60343;-32.030;115.880;2023-04-24T06:03:30;2.97;;;0.40;;
72369;SDS011;60343;-32.030;115.880;2023-04-24T06:06:05;2.40;;;0.30;;
72369;SDS011;60343;-32.030;115.880;2023-04-24T06:08:40;2.80;;;0.28;;
72369;SDS011;60343;-32.030;115.880;2023-04-24T06:11:15;1.25;;;0.10;;
72369;SDS011;60343;-32.030;115.880;2023-04-24T06:13:49;1.48;;;0.20;;
72369;SDS011;60343;-32.030;115.880;2023-04-24T06:16:24;3.38;;;0.20;;
72369;SDS011;60343;-32.030;115.880;2023-04-24T06:19:04;5.70;;;0.40;;
72369;SDS011;60343;-32.030;115.880;2023-04-24T06:21:39;1.52;;;0.30;;
72369;SDS011;60343;-32.030;115.880;2023-04-24T06:24:14;2.92;;;0.20;;
72369;SDS011;60343;-32.030;115.880;2023-04-24T06:26:49;1.50;;;0.22;;
72369;SDS011;60343;-32.030;115.880;2023-04-24T06:29:25;1.95;;;0.28;;
72369;SDS011;60343;-32.030;115.880;2023-04-24T06:31:59;1.95;;;0.20;;
72369;SDS011;60343;-32.030;115.880;2023-04-24T06:34:39;2.80;;;0.40;;
72369;SDS011;60343;-32.030;115.880;2023-04-24T06:37:14;1.13;;;0.17;;
72369;SDS011;60343;-32.030;115.880;2023-04-24T06:39:48;2.55;;;0.30;;
72369;SDS011;60343;-32.030;115.880;2023-04-24T06:42:23;4.70;;;0.40;;
72369;SDS011;60343;-32.030;115.880;2023-04-24T06:44:57;1.23;;;0.17;;
72369;SDS011;60343;-32.030;115.880;2023-04-24T06:47:32;2.83;;;0.28;;
72369;SDS011;60343;-32.030;115.880;2023-04-24T06:50:12;2.75;;;0.20;;
72369;SDS011;60343;-32.030;115.880;2023-04-24T06:52:47;3.10;;;0.32;;
72369;SDS011;60343;-32.030;115.880;2023-04-24T06:55:21;2.63;;;0.30;;
72369;SDS011;60343;-32.030;115.880;2023-04-24T06:57:56;2.30;;;0.10;;
72369;SDS011;60343;-32.030;115.880;2023-04-24T07:00:32;3.72;;;0.30;;
72369;SDS011;60343;-32.030;115.880;2023-04-24T07:03:06;4.13;;;0.20;;
72369;SDS011;60343;-32.030;115.880;2023-04-24T07:05:46;4.10;;;0.38;;
72369;SDS011;60343;-32.030;115.880;2023-04-24T07:08:21;2.65;;;0.20;;
72369;SDS011;60343;-32.030;115.880;2023-04-24T07:10:56;7.53;;;0.40;;
72369;SDS011;60343;-32.030;115.880;2023-04-24T07:13:31;2.67;;;0.28;;
72369;SDS011;60343;-32.030;115.880;2023-04-24T07:16:07;3.17;;;0.25;;
72369;SDS011;60343;-32.030;115.880;2023-04-24T07:18:42;4.03;;;0.63;;
72369;SDS011;60343;-32.030;115.880;2023-04-24T07:21:22;1.67;;;0.20;;
72369;SDS011;60343;-32.030;115.880;2023-04-24T07:23:57;2.05;;;0.17;;
72369;SDS011;60343;-32.030;115.880;2023-04-24T07:26:35;2.40;;;0.20;;
72369;SDS011;60343;-32.030;115.880;2023-04-24T07:29:10;2.38;;;0.20;;
72369;SDS011;60343;-32.030;115.880;2023-04-24T07:31:45;3.60;;;0.30;;
72369;SDS011;60343;-32.030;115.880;2023-04-24T07:34:20;0.85;;;0.10;;
72369;SDS011;60343;-32.030;115.880;2023-04-24T07:37:00;3.30;;;0.20;;
72369;SDS011;60343;-32.030;115.880;2023-04-24T07:39:35;1.20;;;0.10;;
72369;SDS011;60343;-32.030;115.880;2023-04-24T07:42:09;8.38;;;0.45;;
72369;SDS011;60343;-32.030;115.880;2023-04-24T07:44:44;2.25;;;0.10;;
72369;SDS011;60343;-32.030;115.880;2023-04-24T07:47:19;2.72;;;0.30;;
72369;SDS011;60343;-32.030;115.880;2023-04-24T07:49:53;2.65;;;0.20;;
72369;SDS011;60343;-32.030;115.880;2023-04-24T07:57:45;1.52;;;0.10;;
72369;SDS011;60343;-32.030;115.880;2023-04-24T08:00:20;0.32;;;0.03;;
72369;SDS011;60343;-32.030;115.880;2023-04-24T08:02:56;3.00;;;0.10;;
72369;SDS011;60343;-32.030;115.880;2023-04-24T08:05:30;2.50;;;0.15;;
72369;SDS011;60343;-32.030;115.880;2023-04-24T08:08:10;1.17;;;0.10;;
72369;SDS011;60343;-32.030;115.880;2023-04-24T08:10:45;1.35;;;0.10;;
72369;SDS011;60343;-32.030;115.880;2023-04-24T08:13:21;4.18;;;0.10;;
72369;SDS011;60343;-32.030;115.880;2023-04-24T08:15:55;1.17;;;0.10;;
72369;SDS011;60343;-32.030;115.880;2023-04-24T08:18:30;2.75;;;0.15;;
72369;SDS011;60343;-32.030;115.880;2023-04-24T08:21:05;1.33;;;0.20;;
72369;SDS011;60343;-32.030;115.880;2023-04-24T08:23:48;0.93;;;0.10;;
72369;SDS011;60343;-32.030;115.880;2023-04-24T08:26:23;0.98;;;0.10;;
72369;SDS011;60343;-32.030;115.880;2023-04-24T08:28:57;1.42;;;0.20;;
72369;SDS011;60343;-32.030;115.880;2023-04-24T08:31:32;1.45;;;0.03;;
72369;SDS011;60343;-32.030;115.880;2023-04-24T08:34:07;1.65;;;0.17;;
72369;SDS011;60343;-32.030;115.880;2023-04-24T08:36:42;2.25;;;0.17;;
72369;SDS011;60343;-32.030;115.880;2023-04-24T08:39:24;3.22;;;0.20;;
72369;SDS011;60343;-32.030;115.880;2023-04-24T08:41:59;3.45;;;0.20;;
72369;SDS011;60343;-32.030;115.880;2023-04-24T08:44:34;3.60;;;0.32;;
72369;SDS011;60343;-32.030;115.880;2023-04-24T08:47:10;2.60;;;0.20;;
72369;SDS011;60343;-32.030;115.880;2023-04-24T08:49:44;3.55;;;0.20;;
72369;SDS011;60343;-32.030;115.880;2023-04-24T08:52:20;3.13;;;0.20;;
72369;SDS011;60343;-32.030;115.880;2023-04-24T08:55:01;2.00;;;0.10;;
72369;SDS011;60343;-32.030;115.880;2023-04-24T08:57:35;1.42;;;0.10;;
72369;SDS011;60343;-32.030;115.880;2023-04-24T09:00:11;3.85;;;0.40;;
72369;SDS011;60343;-32.030;115.880;2023-04-24T09:02:46;2.80;;;0.10;;
72369;SDS011;60343;-32.030;115.880;2023-04-24T09:05:22;5.28;;;0.32;;
72369;SDS011;60343;-32.030;115.880;2023-04-24T09:07:57;2.35;;;0.30;;
72369;SDS011;60343;-32.030;115.880;2023-04-24T09:10:40;4.93;;;0.30;;
72369;SDS011;60343;-32.030;115.880;2023-04-24T09:13:15;0.93;;;0.10;;
72369;SDS011;60343;-32.030;115.880;2023-04-24T09:15:51;1.10;;;0.10;;
72369;SDS011;60343;-32.030;115.880;2023-04-24T09:18:26;2.17;;;0.15;;
72369;SDS011;60343;-32.030;115.880;2023-04-24T09:21:02;3.72;;;0.28;;
72369;SDS011;60343;-32.030;115.880;2023-04-24T09:23:39;1.17;;;0.10;;
72369;SDS011;60343;-32.030;115.880;2023-04-24T09:26:19;2.25;;;0.10;;
72369;SDS011;60343;-32.030;115.880;2023-04-24T09:28:55;1.60;;;0.17;;
72369;SDS011;60343;-32.030;115.880;2023-04-24T09:31:30;3.97;;;0.30;;
72369;SDS011;60343;-32.030;115.880;2023-04-24T09:34:05;2.60;;;0.20;;
72369;SDS011;60343;-32.030;115.880;2023-04-24T09:36:39;1.65;;;0.20;;
72369;SDS011;60343;-32.030;115.880;2023-04-24T09:39:15;3.63;;;0.20;;
72369;SDS011;60343;-32.030;115.880;2023-04-24T09:41:56;1.23;;;0.20;;
72369;SDS011;60343;-32.030;115.880;2023-04-24T09:44:30;1.15;;;0.00;;
72369;SDS011;60343;-32.030;115.880;2023-04-24T09:47:08;2.45;;;0.28;;
72369;SDS011;60343;-32.030;115.880;2023-04-24T09:49:43;2.47;;;0.20;;
72369;SDS011;60343;-32.030;115.880;2023-04-24T09:52:18;3.70;;;0.20;;
72369;SDS011;60343;-32.030;115.880;2023-04-24T09:54:53;7.25;;;0.50;;
72369;SDS011;60343;-32.030;115.880;2023-04-24T09:57:34;0.82;;;0.10;;
72369;SDS011;60343;-32.030;115.880;2023-04-24T10:00:08;3.75;;;0.50;;
72369;SDS011;60343;-32.030;115.880;2023-04-24T10:02:44;4.25;;;0.82;;
72369;SDS011;60343;-32.030;115.880;2023-04-24T10:05:23;6.75;;;1.02;;
72369;SDS011;60343;-32.030;115.880;2023-04-24T10:08:03;4.03;;;0.60;;
72369;SDS011;60343;-32.030;115.880;2023-04-24T10:10:40;3.15;;;0.40;;
72369;SDS011;60343;-32.030;115.880;2023-04-24T10:13:21;2.08;;;0.28;;
72369;SDS011;60343;-32.030;115.880;2023-04-24T10:15:56;5.78;;;0.80;;
72369;SDS011;60343;-32.030;115.880;2023-04-24T10:18:34;2.67;;;0.28;;
72369;SDS011;60343;-32.030;115.880;2023-04-24T10:21:09;5.90;;;0.30;;
72369;SDS011;60343;-32.030;115.880;2023-04-24T10:23:43;2.65;;;0.15;;
72369;SDS011;60343;-32.030;115.880;2023-04-24T10:26:18;2.63;;;0.35;;
72369;SDS011;60343;-32.030;115.880;2023-04-24T10:28:59;2.92;;;0.20;;
72369;SDS011;60343;-32.030;115.880;2023-04-24T10:31:36;3.10;;;0.25;;
72369;SDS011;60343;-32.030;115.880;2023-04-24T10:34:13;2.45;;;0.30;;
72369;SDS011;60343;-32.030;115.880;2023-04-24T10:36:50;1.92;;;0.30;;
72369;SDS011;60343;-32.030;115.880;2023-04-24T10:39:26;2.80;;;0.50;;
72369;SDS011;60343;-32.030;115.880;2023-04-24T10:42:01;1.80;;;0.20;;
72369;SDS011;60343;-32.030;115.880;2023-04-24T10:44:53;2.45;;;0.20;;
72369;SDS011;60343;-32.030;115.880;2023-04-24T10:47:28;3.13;;;0.30;;
72369;SDS011;60343;-32.030;115.880;2023-04-24T10:50:03;3.08;;;0.22;;
72369;SDS011;60343;-32.030;115.880;2023-04-24T10:52:45;2.47;;;0.20;;
72369;SDS011;60343;-32.030;115.880;2023-04-24T10:58:16;0.70;;;0.22;;
72369;SDS011;60343;-32.030;115.880;2023-04-24T11:01:02;1.63;;;0.15;;
72369;SDS011;60343;-32.030;115.880;2023-04-24T11:03:36;1.35;;;0.10;;
72369;SDS011;60343;-32.030;115.880;2023-04-24T11:06:12;1.80;;;0.50;;
72369;SDS011;60343;-32.030;115.880;2023-04-24T11:08:50;1.75;;;0.20;;
72369;SDS011;60343;-32.030;115.880;2023-04-24T11:11:31;1.80;;;0.22;;
72369;SDS011;60343;-32.030;115.880;2023-04-24T11:14:09;3.00;;;0.22;;
72369;SDS011;60343;-32.030;115.880;2023-04-24T11:16:57;2.38;;;0.30;;
72369;SDS011;60343;-32.030;115.880;2023-04-24T11:19:34;1.80;;;0.40;;
72369;SDS011;60343;-32.030;115.880;2023-04-24T11:22:13;4.25;;;0.50;;
72369;SDS011;60343;-32.030;115.880;2023-04-24T11:24:57;4.60;;;0.52;;
72369;SDS011;60343;-32.030;115.880;2023-04-24T11:27:38;4.45;;;0.50;;
72369;SDS011;60343;-32.030;115.880;2023-04-24T11:30:16;1.50;;;0.30;;
72369;SDS011;60343;-32.030;115.880;2023-04-24T11:32:59;2.05;;;0.20;;
72369;SDS011;60343;-32.030;115.880;2023-04-24T11:35:38;1.88;;;0.40;;
72369;SDS011;60343;-32.030;115.880;2023-04-24T11:38:13;4.35;;;0.47;;
72369;SDS011;60343;-32.030;115.880;2023-04-24T11:40:49;1.73;;;0.30;;
72369;SDS011;60343;-32.030;115.880;2023-04-24T11:43:26;3.28;;;0.60;;
72369;SDS011;60343;-32.030;115.880;2023-04-24T11:46:02;4.00;;;0.60;;
72369;SDS011;60343;-32.030;115.880;2023-04-24T11:48:43;3.17;;;0.60;;
72369;SDS011;60343;-32.030;115.880;2023-04-24T11:51:19;2.00;;;0.30;;
72369;SDS011;60343;-32.030;115.880;2023-04-24T11:53:55;1.90;;;0.30;;
72369;SDS011;60343;-32.030;115.880;2023-04-24T11:56:30;3.17;;;0.47;;
72369;SDS011;60343;-32.030;115.880;2023-04-24T11:59:04;3.20;;;0.30;;
72369;SDS011;60343;-32.030;115.880;2023-04-24T12:01:43;2.08;;;0.30;;
72369;SDS011;60343;-32.030;115.880;2023-04-24T12:04:23;2.75;;;0.50;;
72369;SDS011;60343;-32.030;115.880;2023-04-24T12:07:01;4.18;;;0.45;;
72369;SDS011;60343;-32.030;115.880;2023-04-24T12:09:42;2.97;;;0.50;;
72369;SDS011;60343;-32.030;115.880;2023-04-24T12:12:18;2.97;;;0.40;;
72369;SDS011;60343;-32.030;115.880;2023-04-24T12:14:52;2.50;;;0.50;;
72369;SDS011;60343;-32.030;115.880;2023-04-24T12:17:28;2.25;;;0.45;;
72369;SDS011;60343;-32.030;115.880;2023-04-24T12:20:09;1.35;;;0.22;;
72369;SDS011;60343;-32.030;115.880;2023-04-24T12:22:45;1.98;;;0.20;;
72369;SDS011;60343;-32.030;115.880;2023-04-24T12:25:20;0.80;;;0.30;;
72369;SDS011;60343;-32.030;115.880;2023-04-24T12:28:08;3.00;;;0.35;;
72369;SDS011;60343;-32.030;115.880;2023-04-24T12:30:44;2.78;;;0.40;;
72369;SDS011;60343;-32.030;115.880;2023-04-24T12:33:21;2.65;;;0.38;;
72369;SDS011;60343;-32.030;115.880;2023-04-24T12:36:01;4.38;;;0.40;;
72369;SDS011;60343;-32.030;115.880;2023-04-24T12:38:38;2.67;;;0.10;;
72369;SDS011;60343;-32.030;115.880;2023-04-24T12:41:16;2.72;;;0.20;;
72369;SDS011;60343;-32.030;115.880;2023-04-24T12:43:53;1.50;;;0.20;;
72369;SDS011;60343;-32.030;115.880;2023-04-24T12:46:29;2.05;;;0.22;;
72369;SDS011;60343;-32.030;115.880;2023-04-24T12:49:03;1.83;;;0.30;;
72369;SDS011;60343;-32.030;115.880;2023-04-24T12:51:43;1.55;;;0.20;;
72369;SDS011;60343;-32.030;115.880;2023-04-24T12:54:18;1.33;;;0.20;;
72369;SDS011;60343;-32.030;115.880;2023-04-24T12:56:52;2.72;;;0.20;;
72369;SDS011;60343;-32.030;115.880;2023-04-24T12:59:26;1.77;;;0.30;;
72369;SDS011;60343;-32.030;115.880;2023-04-24T13:02:01;0.98;;;0.10;;
72369;SDS011;60343;-32.030;115.880;2023-04-24T13:04:36;1.45;;;0.20;;
72369;SDS011;60343;-32.030;115.880;2023-04-24T13:07:16;2.55;;;0.40;;
72369;SDS011;60343;-32.030;115.880;2023-04-24T13:09:51;2.55;;;0.47;;
72369;SDS011;60343;-32.030;115.880;2023-04-24T13:12:26;2.42;;;0.40;;
72369;SDS011;60343;-32.030;115.880;2023-04-24T13:15:00;1.20;;;0.20;;
72369;SDS011;60343;-32.030;115.880;2023-04-24T13:17:35;2.88;;;0.30;;
72369;SDS011;60343;-32.030;115.880;2023-04-24T13:20:09;1.95;;;0.40;;
72369;SDS011;60343;-32.030;115.880;2023-04-24T13:22:50;5.15;;;0.57;;
72369;SDS011;60343;-32.030;115.880;2023-04-24T13:25:24;1.75;;;0.30;;
72369;SDS011;60343;-32.030;115.880;2023-04-24T13:27:59;2.78;;;0.28;;
72369;SDS011;60343;-32.030;115.880;2023-04-24T13:30:33;2.33;;;0.20;;
72369;SDS011;60343;-32.030;115.880;2023-04-24T13:33:08;4.97;;;0.50;;
72369;SDS011;60343;-32.030;115.880;2023-04-24T13:35:42;2.88;;;0.43;;
72369;SDS011;60343;-32.030;115.880;2023-04-24T13:38:23;1.45;;;0.25;;
72369;SDS011;60343;-32.030;115.880;2023-04-24T13:40:57;2.10;;;0.30;;
72369;SDS011;60343;-32.030;115.880;2023-04-24T13:43:32;1.85;;;0.40;;
72369;SDS011;60343;-32.030;115.880;2023-04-24T13:46:07;0.55;;;0.13;;
72369;SDS011;60343;-32.030;115.880;2023-04-24T13:48:42;2.30;;;0.35;;
72369;SDS011;60343;-32.030;115.880;2023-04-24T13:51:17;1.70;;;0.43;;
72369;SDS011;60343;-32.030;115.880;2023-04-24T13:53:58;1.33;;;0.22;;
72369;SDS011;60343;-32.030;115.880;2023-04-24T13:56:33;2.95;;;0.50;;
72369;SDS011;60343;-32.030;115.880;2023-04-24T13:59:07;0.93;;;0.25;;
72369;SDS011;60343;-32.030;115.880;2023-04-24T14:01:42;3.33;;;0.40;;
72369;SDS011;60343;-32.030;115.880;2023-04-24T14:04:17;1.02;;;0.20;;
72369;SDS011;60343;-32.030;115.880;2023-04-24T14:06:51;1.23;;;0.17;;
72369;SDS011;60343;-32.030;115.880;2023-04-24T14:09:31;1.17;;;0.15;;
72369;SDS011;60343;-32.030;115.880;2023-04-24T14:12:06;2.67;;;0.50;;
72369;SDS011;60343;-32.030;115.880;2023-04-24T14:14:42;2.90;;;0.35;;
72369;SDS011;60343;-32.030;115.880;2023-04-24T14:17:17;3.22;;;0.50;;
72369;SDS011;60343;-32.030;115.880;2023-04-24T14:19:51;1.85;;;0.40;;
72369;SDS011;60343;-32.030;115.880;2023-04-24T14:22:26;1.45;;;0.30;;
72369;SDS011;60343;-32.030;115.880;2023-04-24T14:25:07;2.42;;;0.35;;
72369;SDS011;60343;-32.030;115.880;2023-04-24T14:27:42;1.00;;;0.28;;
72369;SDS011;60343;-32.030;115.880;2023-04-24T14:30:16;0.82;;;0.30;;
72369;SDS011;60343;-32.030;115.880;2023-04-24T14:32:51;1.58;;;0.30;;
72369;SDS011;60343;-32.030;115.880;2023-04-24T14:35:25;1.15;;;0.50;;
72369;SDS011;60343;-32.030;115.880;2023-04-24T14:38:01;0.95;;;0.30;;
72369;SDS011;60343;-32.030;115.880;2023-04-24T14:40:41;1.58;;;0.40;;
72369;SDS011;60343;-32.030;115.880;2023-04-24T14:43:15;1.90;;;0.40;;
72369;SDS011;60343;-32.030;115.880;2023-04-24T14:45:50;2.65;;;0.50;;
72369;SDS011;60343;-32.030;115.880;2023-04-24T14:48:24;2.63;;;0.63;;
72369;SDS011;60343;-32.030;115.880;2023-04-24T14:50:59;1.50;;;0.47;;
72369;SDS011;60343;-32.030;115.880;2023-04-24T14:53:33;3.25;;;0.50;;
72369;SDS011;60343;-32.030;115.880;2023-04-24T14:56:14;1.23;;;0.40;;
72369;SDS011;60343;-32.030;115.880;2023-04-24T14:58:48;1.63;;;0.47;;
72369;SDS011;60343;-32.030;115.880;2023-04-24T15:01:23;3.40;;;0.40;;
72369;SDS011;60343;-32.030;115.880;2023-04-24T15:03:57;2.60;;;0.50;;
72369;SDS011;60343;-32.030;115.880;2023-04-24T15:06:32;2.03;;;0.43;;
72369;SDS011;60343;-32.030;115.880;2023-04-24T15:09:06;2.13;;;0.30;;